Time;durP1;ratioP1;P1;durP2;ratioP2;P2;SDS_P1;SDS_P2;PMS_P1;PMS_P2;Temp;Humidity;BMP_temperature;BMP_pressure;BME280_temperature;BME280_humidity;BME280_pressure;Samples;Min_cycle;Max_cycle;Signal;HPM_P1;HPM_P2
2021/11/06 00:00:38;;;;;;;0.10;0.10;;;16.10;92.00;;;;;;5025301;28;20373;-92
2021/11/06 00:03:06;;;;;;;0.10;0.10;;;16.10;92.00;;;;;;5023272;28;20076;-94
2021/11/06 00:05:32;;;;;;;0.10;0.10;;;16.10;92.10;;;;;;5024578;28;20021;-93
2021/11/06 00:07:58;;;;;;;0.00;0.00;;;16.10;92.30;;;;;;5025063;28;20036;-93
2021/11/06 00:10:24;;;;;;;0.10;0.10;;;16.10;92.30;;;;;;5023412;28;20442;-94
2021/11/06 00:12:50;;;;;;;0.00;0.00;;;16.10;92.20;;;;;;5024743;28;20441;-94
2021/11/06 00:15:17;;;;;;;0.00;0.00;;;16.10;92.20;;;;;;5024680;28;20576;-95
2021/11/06 00:17:43;;;;;;;0.10;0.10;;;16.10;92.30;;;;;;5021711;28;20029;-94
2021/11/06 00:20:12;;;;;;;0.10;0.10;;;16.10;92.30;;;;;;5024565;28;20431;-94
2021/11/06 00:22:38;;;;;;;0.10;0.10;;;16.10;92.20;;;;;;5024560;28;20036;-92
2021/11/06 00:25:05;;;;;;;0.00;0.00;;;16.10;92.20;;;;;;5023905;28;20030;-94
2021/11/06 00:27:32;;;;;;;0.00;0.00;;;16.20;92.10;;;;;;5025462;28;20026;-92
2021/11/06 00:29:58;;;;;;;0.00;0.00;;;16.20;92.10;;;;;;5024104;28;20026;-93
2021/11/06 00:32:23;;;;;;;0.00;0.00;;;16.20;92.00;;;;;;5023409;28;20045;-94
2021/11/06 00:34:49;;;;;;;0.00;0.00;;;16.20;92.00;;;;;;5024902;28;20084;-94
2021/11/06 00:37:15;;;;;;;0.10;0.10;;;16.20;92.00;;;;;;5024859;28;20049;-94
2021/11/06 00:39:41;;;;;;;0.00;0.00;;;16.20;92.10;;;;;;5022584;28;20441;-93
2021/11/06 00:42:06;;;;;;;0.13;0.13;;;16.20;92.00;;;;;;5024820;28;20104;-94
2021/11/06 00:44:32;;;;;;;0.10;0.10;;;16.20;91.90;;;;;;5023582;28;20017;-93
2021/11/06 00:46:58;;;;;;;0.00;0.00;;;16.10;92.00;;;;;;5022708;28;20037;-93
2021/11/06 00:49:24;;;;;;;0.05;0.05;;;16.10;92.10;;;;;;5024359;28;20026;-95
2021/11/06 00:51:50;;;;;;;0.00;0.00;;;16.10;92.20;;;;;;5045051;28;20029;-94
2021/11/06 00:54:16;;;;;;;0.00;0.00;;;16.10;92.20;;;;;;5023849;28;20125;-94
2021/11/06 00:56:42;;;;;;;0.05;0.05;;;16.10;92.20;;;;;;5021098;28;20109;-95
2021/11/06 00:59:08;;;;;;;0.10;0.10;;;16.10;92.20;;;;;;5024494;28;20120;-93
2021/11/06 01:01:36;;;;;;;0.03;0.03;;;16.10;92.20;;;;;;5023318;28;20409;-94
2021/11/06 01:04:05;;;;;;;0.08;0.08;;;16.10;92.20;;;;;;5022043;28;20105;-94
2021/11/06 01:06:31;;;;;;;0.05;0.05;;;16.10;92.20;;;;;;5023465;28;20025;-91
2021/11/06 01:08:57;;;;;;;0.10;0.10;;;16.10;92.20;;;;;;5023735;28;20025;-94
2021/11/06 01:11:23;;;;;;;0.00;0.00;;;16.10;92.20;;;;;;5020950;28;20053;-93
2021/11/06 01:13:51;;;;;;;0.00;0.00;;;16.10;92.20;;;;;;5023451;28;20034;-94
2021/11/06 01:16:16;;;;;;;0.10;0.10;;;16.10;92.20;;;;;;5023521;28;20125;-95
2021/11/06 01:18:42;;;;;;;0.10;0.10;;;16.10;92.20;;;;;;5021858;28;20121;-94
2021/11/06 01:21:09;;;;;;;0.10;0.10;;;16.20;92.20;;;;;;5023724;28;20330;-93
2021/11/06 01:23:35;;;;;;;0.00;0.00;;;16.20;92.20;;;;;;5023373;28;20025;-94
2021/11/06 01:26:02;;;;;;;0.00;0.00;;;16.10;92.00;;;;;;5031092;28;20029;-94
2021/11/06 01:28:29;;;;;;;0.10;0.10;;;16.20;92.10;;;;;;5044608;28;20077;-93
2021/11/06 01:30:54;;;;;;;0.00;0.00;;;16.20;92.10;;;;;;5044674;28;20072;-94
2021/11/06 01:33:20;;;;;;;0.65;0.65;;;16.20;92.10;;;;;;5024174;28;20025;-94
2021/11/06 01:35:47;;;;;;;1.15;1.15;;;16.20;92.10;;;;;;5024774;28;20068;-95
2021/11/06 01:38:13;;;;;;;0.77;0.77;;;16.10;92.10;;;;;;5023082;28;20077;-95
2021/11/06 01:40:39;;;;;;;1.60;1.50;;;16.10;92.00;;;;;;5023727;28;20068;-93
2021/11/06 01:43:05;;;;;;;1.27;1.00;;;16.10;92.00;;;;;;5021380;28;20026;-95
2021/11/06 01:45:31;;;;;;;1.02;1.00;;;16.10;92.10;;;;;;5023301;28;20021;-95
2021/11/06 01:47:57;;;;;;;0.98;0.98;;;16.10;92.20;;;;;;5022793;28;20049;-95
2021/11/06 01:50:24;;;;;;;0.93;0.93;;;16.10;92.50;;;;;;5021908;28;20026;-94
2021/11/06 01:52:50;;;;;;;2.35;2.15;;;16.10;92.70;;;;;;5023121;28;20021;-94
2021/11/06 01:55:16;;;;;;;0.55;0.52;;;16.10;92.40;;;;;;5023366;28;20030;-94
2021/11/06 01:57:44;;;;;;;1.08;0.88;;;16.00;92.30;;;;;;5048359;28;20080;-94
2021/11/06 02:00:13;;;;;;;1.42;1.33;;;16.00;92.40;;;;;;5048936;28;20030;-94
2021/11/06 02:02:41;;;;;;;1.02;0.98;;;16.00;92.60;;;;;;5033664;28;20018;-94
2021/11/06 02:05:07;;;;;;;1.67;1.58;;;16.00;92.50;;;;;;5034428;28;20109;-93
2021/11/06 02:07:33;;;;;;;0.60;0.60;;;16.00;92.40;;;;;;5034856;28;20112;-93
2021/11/06 02:10:00;;;;;;;1.10;1.00;;;16.00;92.40;;;;;;5034705;28;20032;-92
2021/11/06 02:12:27;;;;;;;1.20;1.10;;;15.90;92.40;;;;;;5033810;28;20025;-94
2021/11/06 02:14:53;;;;;;;1.50;1.40;;;15.90;92.50;;;;;;5033543;28;20037;-95
2021/11/06 02:17:19;;;;;;;1.90;1.80;;;15.90;92.60;;;;;;5033377;28;20361;-94
2021/11/06 02:19:45;;;;;;;1.13;0.88;;;15.90;92.60;;;;;;5033163;28;20033;-94
2021/11/06 02:22:11;;;;;;;1.20;1.10;;;15.90;92.70;;;;;;5033349;28;20579;-95
2021/11/06 02:24:36;;;;;;;1.15;1.05;;;15.90;92.80;;;;;;5033145;28;20022;-96
2021/11/06 02:27:02;;;;;;;0.63;0.63;;;15.90;92.90;;;;;;5033215;28;20029;-95
2021/11/06 02:29:28;;;;;;;0.20;0.20;;;15.90;93.00;;;;;;5033283;28;20112;-95
2021/11/06 02:31:53;;;;;;;0.00;0.00;;;15.90;93.10;;;;;;5033113;28;20112;-95
2021/11/06 02:34:19;;;;;;;0.00;0.00;;;16.00;93.30;;;;;;5032952;28;20057;-94
2021/11/06 02:36:45;;;;;;;0.00;0.00;;;16.10;93.30;;;;;;5032864;28;20083;-94
2021/11/06 02:39:11;;;;;;;0.00;0.00;;;16.10;93.10;;;;;;5032973;28;20124;-94
2021/11/06 02:41:37;;;;;;;0.00;0.00;;;16.20;92.80;;;;;;5036215;28;20057;-95
2021/11/06 02:44:11;;;;;;;0.00;0.00;;;16.20;92.30;;;;;;5036611;28;20044;-94
2021/11/06 02:46:38;;;;;;;0.00;0.00;;;16.20;91.90;;;;;;5036250;28;20033;-95
2021/11/06 02:49:06;;;;;;;0.00;0.00;;;16.20;91.70;;;;;;5036389;28;20128;-94
2021/11/06 02:51:32;;;;;;;0.00;0.00;;;16.20;91.50;;;;;;5036696;28;20056;-94
2021/11/06 02:53:58;;;;;;;0.00;0.00;;;16.20;90.60;;;;;;5036517;28;20025;-93
2021/11/06 02:56:26;;;;;;;0.00;0.00;;;16.20;90.50;;;;;;5036588;28;20448;-94
2021/11/06 02:58:53;;;;;;;0.00;0.00;;;16.10;89.60;;;;;;5036051;28;20529;-94
2021/11/06 03:01:19;;;;;;;0.00;0.00;;;16.20;89.40;;;;;;5036482;28;20033;-94
2021/11/06 03:03:45;;;;;;;0.00;0.00;;;16.10;87.30;;;;;;5036181;28;20022;-94
2021/11/06 03:06:11;;;;;;;0.00;0.00;;;16.10;85.90;;;;;;5036239;28;20021;-94
2021/11/06 03:08:36;;;;;;;0.00;0.00;;;16.10;86.00;;;;;;5036310;28;20039;-93
2021/11/06 03:11:02;;;;;;;0.00;0.00;;;16.00;86.00;;;;;;5036156;28;20051;-94
2021/11/06 03:13:28;;;;;;;0.00;0.00;;;16.00;85.90;;;;;;5036182;28;20030;-95
2021/11/06 03:15:54;;;;;;;0.00;0.00;;;16.00;85.50;;;;;;5051504;28;20488;-92
2021/11/06 03:18:19;;;;;;;0.00;0.00;;;16.00;85.20;;;;;;5036125;28;20111;-92
2021/11/06 03:20:45;;;;;;;0.00;0.00;;;16.00;84.80;;;;;;5036079;28;20358;-93
2021/11/06 03:23:11;;;;;;;0.00;0.00;;;15.90;84.30;;;;;;5036536;28;20029;-94
2021/11/06 03:25:37;;;;;;;0.00;0.00;;;15.90;84.10;;;;;;5036169;28;20100;-94
2021/11/06 03:28:03;;;;;;;0.00;0.00;;;15.90;83.90;;;;;;5035888;28;20030;-93
2021/11/06 03:30:28;;;;;;;0.00;0.00;;;15.80;82.70;;;;;;5035771;28;20053;-95
2021/11/06 03:32:54;;;;;;;0.00;0.00;;;15.80;82.60;;;;;;5051150;28;20057;-94
2021/11/06 03:35:21;;;;;;;0.00;0.00;;;15.80;82.70;;;;;;5035737;28;20071;-94
2021/11/06 03:37:47;;;;;;;0.00;0.00;;;15.70;82.40;;;;;;5035753;28;20026;-94
2021/11/06 03:40:14;;;;;;;0.00;0.00;;;15.70;82.10;;;;;;5035686;28;20205;-94
2021/11/06 03:42:41;;;;;;;0.00;0.00;;;15.60;81.60;;;;;;5035549;28;20030;-94
2021/11/06 03:45:08;;;;;;;0.00;0.00;;;15.60;81.60;;;;;;5035565;28;20028;-94
2021/11/06 03:47:34;;;;;;;0.00;0.00;;;15.50;81.10;;;;;;5035289;28;20465;-95
2021/11/06 03:50:00;;;;;;;0.00;0.00;;;15.40;80.80;;;;;;5035501;28;20027;-92
2021/11/06 03:52:26;;;;;;;0.00;0.00;;;15.30;80.00;;;;;;5033897;28;20029;-92
2021/11/06 03:54:52;;;;;;;0.00;0.00;;;15.10;78.50;;;;;;5035036;28;20021;-92
2021/11/06 03:57:17;;;;;;;0.00;0.00;;;15.00;78.60;;;;;;5035372;28;20017;-94
2021/11/06 03:59:43;;;;;;;0.00;0.00;;;14.90;79.10;;;;;;5034588;28;20462;-94
2021/11/06 04:02:09;;;;;;;0.00;0.00;;;14.80;79.30;;;;;;5035422;28;20064;-94
2021/11/06 04:04:35;;;;;;;0.00;0.00;;;14.60;79.60;;;;;;5034936;28;20029;-93
2021/11/06 04:07:01;;;;;;;0.00;0.00;;;14.50;79.70;;;;;;5035113;28;20036;-95
2021/11/06 04:09:26;;;;;;;0.00;0.00;;;14.30;79.60;;;;;;5035168;28;20029;-95
2021/11/06 04:11:52;;;;;;;0.00;0.00;;;14.10;80.00;;;;;;5034987;28;20025;-95
2021/11/06 04:14:18;;;;;;;0.00;0.00;;;14.00;79.80;;;;;;5035091;28;20025;-95
2021/11/06 04:16:43;;;;;;;0.00;0.00;;;13.90;79.70;;;;;;5034328;28;20116;-94
2021/11/06 04:19:10;;;;;;;0.00;0.00;;;13.80;80.10;;;;;;5034904;28;20510;-94
2021/11/06 04:21:36;;;;;;;0.00;0.00;;;13.70;79.90;;;;;;5034792;28;20025;-94
2021/11/06 04:24:02;;;;;;;0.00;0.00;;;13.60;79.70;;;;;;5034660;28;20099;-94
2021/11/06 04:26:28;;;;;;;0.00;0.00;;;13.50;79.90;;;;;;5034191;28;20466;-94
2021/11/06 04:28:53;;;;;;;0.00;0.00;;;13.30;80.30;;;;;;5034503;28;20454;-94
2021/11/06 04:31:20;;;;;;;0.00;0.00;;;13.20;80.70;;;;;;5034609;28;20033;-95
2021/11/06 04:33:46;;;;;;;0.00;0.00;;;13.10;80.60;;;;;;5034742;28;20046;-95
2021/11/06 04:36:12;;;;;;;0.00;0.00;;;13.00;80.50;;;;;;5035466;28;20105;-96
2021/11/06 04:38:37;;;;;;;0.00;0.00;;;13.00;80.20;;;;;;5049709;28;20053;-95
2021/11/06 04:41:04;;;;;;;0.00;0.00;;;13.00;79.80;;;;;;5034156;28;20036;-95
2021/11/06 04:43:29;;;;;;;0.00;0.00;;;12.90;79.80;;;;;;5034519;28;20017;-95
2021/11/06 04:45:55;;;;;;;0.00;0.00;;;12.90;80.20;;;;;;5034115;28;20036;-95
2021/11/06 04:48:21;;;;;;;0.00;0.00;;;12.80;80.40;;;;;;5034404;28;20445;-95
2021/11/06 04:50:46;;;;;;;0.00;0.00;;;12.90;79.60;;;;;;5033970;28;20026;-95
2021/11/06 04:53:12;;;;;;;0.00;0.00;;;12.90;78.80;;;;;;5034633;28;20030;-94
2021/11/06 04:55:38;;;;;;;0.00;0.00;;;12.90;78.00;;;;;;5039279;28;20025;-95
2021/11/06 04:58:04;;;;;;;0.00;0.00;;;12.90;77.30;;;;;;5040720;28;20065;-92
2021/11/06 05:00:29;;;;;;;0.00;0.00;;;12.90;77.30;;;;;;5034063;28;20026;-95
2021/11/06 05:02:55;;;;;;;0.00;0.00;;;12.90;77.50;;;;;;5033660;28;20384;-93
2021/11/06 05:05:23;;;;;;;0.00;0.00;;;12.90;77.70;;;;;;5049767;28;20108;-94
2021/11/06 05:07:49;;;;;;;0.00;0.00;;;12.90;76.50;;;;;;5033845;28;20121;-95
2021/11/06 05:10:15;;;;;;;0.00;0.00;;;13.00;76.30;;;;;;5034974;28;20021;-91
2021/11/06 05:12:41;;;;;;;0.00;0.00;;;13.00;76.60;;;;;;5034287;28;20052;-95
2021/11/06 05:15:08;;;;;;;0.00;0.00;;;13.00;76.60;;;;;;5034523;28;20417;-92
2021/11/06 05:17:34;;;;;;;0.00;0.00;;;13.00;75.40;;;;;;5047803;28;20389;-94
2021/11/06 05:20:00;;;;;;;0.00;0.00;;;13.00;75.60;;;;;;5048093;28;20492;-94
2021/11/06 05:22:26;;;;;;;0.00;0.00;;;13.00;75.70;;;;;;5022704;28;20040;-95
2021/11/06 05:24:52;;;;;;;0.00;0.00;;;13.10;75.90;;;;;;5025861;28;20103;-95
2021/11/06 05:27:18;;;;;;;0.10;0.00;;;13.10;76.00;;;;;;5022688;28;20057;-93
2021/11/06 05:29:44;;;;;;;0.00;0.00;;;13.10;75.80;;;;;;5048172;28;20025;-92
2021/11/06 05:32:10;;;;;;;0.00;0.00;;;13.00;75.40;;;;;;5024667;28;20355;-96
2021/11/06 05:34:36;;;;;;;0.00;0.00;;;13.00;75.60;;;;;;5023388;28;20053;-95
2021/11/06 05:37:02;;;;;;;0.00;0.00;;;13.00;75.50;;;;;;5024193;28;20025;-94
2021/11/06 05:39:28;;;;;;;0.00;0.00;;;13.00;75.50;;;;;;5016881;28;20394;-91
2021/11/06 05:41:54;;;;;;;0.00;0.00;;;13.00;75.30;;;;;;5016140;28;20033;-94
2021/11/06 05:44:20;;;;;;;0.00;0.00;;;12.90;75.10;;;;;;5014479;28;20473;-94
2021/11/06 05:46:45;;;;;;;0.00;0.00;;;12.90;75.00;;;;;;5014038;28;20470;-94
2021/11/06 05:49:11;;;;;;;0.00;0.00;;;12.80;74.70;;;;;;5013997;28;20037;-94
2021/11/06 05:51:38;;;;;;;0.00;0.00;;;12.80;74.60;;;;;;5014306;28;20421;-93
2021/11/06 05:54:04;;;;;;;0.00;0.00;;;12.80;74.50;;;;;;5013702;28;20169;-94
2021/11/06 05:56:30;;;;;;;0.00;0.00;;;12.80;74.40;;;;;;5013840;28;20100;-95
2021/11/06 05:58:55;;;;;;;0.00;0.00;;;12.80;74.30;;;;;;5013571;28;20030;-95
2021/11/06 06:01:21;;;;;;;0.00;0.00;;;12.70;72.60;;;;;;5013916;28;20026;-93
2021/11/06 06:03:47;;;;;;;0.00;0.00;;;12.70;71.70;;;;;;5013457;28;20097;-92
2021/11/06 06:06:13;;;;;;;0.00;0.00;;;12.70;71.50;;;;;;5013630;28;20114;-95
2021/11/06 06:08:39;;;;;;;0.00;0.00;;;12.70;71.90;;;;;;5014482;28;20049;-94
2021/11/06 06:11:04;;;;;;;0.00;0.00;;;12.60;71.50;;;;;;5013454;28;20022;-94
2021/11/06 06:13:30;;;;;;;0.00;0.00;;;12.70;71.80;;;;;;5022160;28;20036;-93
2021/11/06 06:15:56;;;;;;;0.00;0.00;;;12.60;72.20;;;;;;5038135;28;20026;-92
2021/11/06 06:18:22;;;;;;;0.00;0.00;;;12.60;72.40;;;;;;5037678;28;20392;-92
2021/11/06 06:20:49;;;;;;;0.00;0.00;;;12.60;72.50;;;;;;5037366;28;20045;-90
2021/11/06 06:23:15;;;;;;;0.00;0.00;;;12.70;72.70;;;;;;5052536;28;20026;-91
2021/11/06 06:25:41;;;;;;;0.00;0.00;;;12.70;72.80;;;;;;5037297;28;20071;-93
2021/11/06 06:28:07;;;;;;;0.00;0.00;;;12.70;72.90;;;;;;5037422;28;20021;-92
2021/11/06 06:30:35;;;;;;;0.00;0.00;;;12.70;72.70;;;;;;5037331;28;20018;-93
2021/11/06 06:33:04;;;;;;;0.00;0.00;;;12.80;72.50;;;;;;5037029;28;20022;-93
2021/11/06 06:35:30;;;;;;;0.00;0.00;;;12.80;72.70;;;;;;5036862;28;20030;-93
2021/11/06 06:37:57;;;;;;;0.00;0.00;;;12.80;72.70;;;;;;5036633;28;20025;-93
2021/11/06 06:40:23;;;;;;;0.00;0.00;;;12.80;72.60;;;;;;5036716;28;20029;-92
2021/11/06 06:42:49;;;;;;;0.00;0.00;;;12.80;72.70;;;;;;5036929;28;20032;-93
2021/11/06 06:45:14;;;;;;;0.00;0.00;;;12.80;72.60;;;;;;5053604;28;20025;-92
2021/11/06 06:47:40;;;;;;;0.00;0.00;;;12.90;72.80;;;;;;5040090;28;20026;-93
2021/11/06 06:50:08;;;;;;;0.00;0.00;;;12.90;72.80;;;;;;5038248;28;20029;-93
2021/11/06 06:52:34;;;;;;;0.00;0.00;;;12.90;72.80;;;;;;5052893;28;20033;-93
2021/11/06 06:55:00;;;;;;;0.00;0.00;;;13.00;72.90;;;;;;5036980;28;20449;-93
2021/11/06 06:57:26;;;;;;;0.00;0.00;;;13.00;72.80;;;;;;5038490;28;20037;-92
2021/11/06 06:59:51;;;;;;;0.00;0.00;;;13.00;72.60;;;;;;5037833;28;20033;-92
2021/11/06 07:02:17;;;;;;;0.00;0.00;;;13.00;72.40;;;;;;5038537;28;20073;-92
2021/11/06 07:04:43;;;;;;;0.00;0.00;;;13.00;72.30;;;;;;5042820;28;20034;-94
2021/11/06 07:07:09;;;;;;;0.00;0.00;;;13.00;72.40;;;;;;5038422;28;20040;-95
2021/11/06 07:09:36;;;;;;;0.00;0.00;;;13.00;72.40;;;;;;5036049;28;20029;-93
2021/11/06 07:12:01;;;;;;;0.00;0.00;;;13.00;72.40;;;;;;5035789;28;20092;-93
2021/11/06 07:14:27;;;;;;;0.00;0.00;;;13.00;72.30;;;;;;5035646;28;20462;-95
2021/11/06 07:16:53;;;;;;;0.00;0.00;;;13.10;72.30;;;;;;5036198;28;20037;-92
2021/11/06 07:19:19;;;;;;;0.00;0.00;;;13.10;72.00;;;;;;5035485;28;20029;-94
2021/11/06 07:21:45;;;;;;;0.00;0.00;;;13.20;71.90;;;;;;5036467;28;20026;-94
2021/11/06 07:24:10;;;;;;;0.00;0.00;;;13.20;71.70;;;;;;5053414;28;20029;-93
2021/11/06 07:26:36;;;;;;;0.00;0.00;;;13.30;71.70;;;;;;5038392;28;20072;-92
2021/11/06 07:29:02;;;;;;;0.00;0.00;;;13.30;71.50;;;;;;5036044;28;20039;-94
2021/11/06 07:31:28;;;;;;;0.00;0.00;;;13.40;71.50;;;;;;5037441;28;20428;-93
2021/11/06 07:33:54;;;;;;;0.00;0.00;;;13.40;71.20;;;;;;5037652;28;20033;-92
2021/11/06 07:36:24;;;;;;;0.00;0.00;;;13.50;71.10;;;;;;5038029;28;20058;-94
2021/11/06 07:38:50;;;;;;;0.00;0.00;;;13.40;71.00;;;;;;5037708;28;20054;-94
2021/11/06 07:41:16;;;;;;;0.00;0.00;;;13.50;71.00;;;;;;5036717;28;20026;-93
2021/11/06 07:43:43;;;;;;;0.00;0.00;;;13.50;70.90;;;;;;5036853;28;20567;-92
2021/11/06 07:46:09;;;;;;;0.00;0.00;;;13.50;70.80;;;;;;5037254;28;20374;-93
2021/11/06 07:48:35;;;;;;;0.00;0.00;;;13.50;70.70;;;;;;5037204;28;20473;-93
2021/11/06 07:51:01;;;;;;;0.00;0.00;;;13.60;70.70;;;;;;5052837;28;20028;-94
2021/11/06 07:53:27;;;;;;;0.00;0.00;;;13.60;70.10;;;;;;5036914;28;20028;-93
2021/11/06 07:55:54;;;;;;;0.00;0.00;;;13.60;69.80;;;;;;5035609;28;20036;-92
2021/11/06 07:58:20;;;;;;;0.00;0.00;;;13.50;69.70;;;;;;5036276;28;20363;-93
2021/11/06 08:00:45;;;;;;;0.00;0.00;;;13.50;69.80;;;;;;5035586;28;20121;-92
2021/11/06 08:03:11;;;;;;;0.00;0.00;;;13.50;70.30;;;;;;5036185;28;20433;-94
2021/11/06 08:05:37;;;;;;;0.00;0.00;;;13.50;69.50;;;;;;5035823;28;20355;-94
2021/11/06 08:08:04;;;;;;;0.00;0.00;;;13.40;69.30;;;;;;5034938;28;20469;-93
2021/11/06 08:10:30;;;;;;;0.00;0.00;;;13.40;69.20;;;;;;5035132;28;20416;-93
2021/11/06 08:12:59;;;;;;;0.00;0.00;;;13.40;69.30;;;;;;5034591;28;20040;-91
2021/11/06 08:15:25;;;;;;;0.00;0.00;;;13.50;69.30;;;;;;5035112;28;20048;-92
2021/11/06 08:17:53;;;;;;;0.00;0.00;;;13.50;69.00;;;;;;5034740;28;20068;-93
2021/11/06 08:20:25;;;;;;;0.00;0.00;;;13.50;68.90;;;;;;5033913;28;20373;-93
2021/11/06 08:22:54;;;;;;;0.00;0.00;;;13.60;69.00;;;;;;5034971;28;20021;-92
2021/11/06 08:25:22;;;;;;;0.00;0.00;;;13.70;68.90;;;;;;5040962;28;20030;-92
2021/11/06 08:27:51;;;;;;;0.00;0.00;;;13.90;68.90;;;;;;5034995;28;20026;-92
2021/11/06 08:30:18;;;;;;;0.00;0.00;;;14.10;68.50;;;;;;5034783;28;20116;-93
2021/11/06 08:32:47;;;;;;;0.00;0.00;;;14.20;68.50;;;;;;5035875;28;20029;-91
2021/11/06 08:35:13;;;;;;;0.00;0.00;;;14.50;68.40;;;;;;5035587;28;20032;-92
2021/11/06 08:37:39;;;;;;;0.00;0.00;;;15.10;68.50;;;;;;5034764;28;20021;-93
2021/11/06 08:40:06;;;;;;;0.00;0.00;;;15.80;67.50;;;;;;5049851;28;20049;-92
2021/11/06 08:42:34;;;;;;;0.00;0.00;;;16.30;65.60;;;;;;5034737;28;20049;-91
2021/11/06 08:45:01;;;;;;;0.00;0.00;;;16.40;63.70;;;;;;5034719;28;20073;-93
2021/11/06 08:47:28;;;;;;;0.00;0.00;;;16.50;63.30;;;;;;5034992;28;20021;-92
2021/11/06 08:49:54;;;;;;;0.00;0.00;;;16.90;62.90;;;;;;5034740;28;20478;-93
2021/11/06 08:52:20;;;;;;;0.00;0.00;;;17.30;62.30;;;;;;5034571;28;20018;-92
2021/11/06 08:54:48;;;;;;;0.00;0.00;;;18.10;62.00;;;;;;5034603;28;20492;-91
2021/11/06 08:57:13;;;;;;;0.00;0.00;;;19.20;60.30;;;;;;5034705;28;20030;-93
2021/11/06 08:59:39;;;;;;;0.00;0.00;;;19.90;57.50;;;;;;5034814;28;20030;-93
2021/11/06 09:02:05;;;;;;;0.00;0.00;;;19.90;55.30;;;;;;5034533;28;20076;-93
2021/11/06 09:04:31;;;;;;;0.00;0.00;;;19.70;54.30;;;;;;5034038;28;20026;-92
2021/11/06 09:06:57;;;;;;;0.00;0.00;;;19.20;54.00;;;;;;5035100;28;20029;-92
2021/11/06 09:09:23;;;;;;;0.00;0.00;;;18.90;54.50;;;;;;5034916;28;20425;-92
2021/11/06 09:11:54;;;;;;;0.00;0.00;;;18.80;54.60;;;;;;5035021;28;20152;-92
2021/11/06 09:14:20;;;;;;;0.00;0.00;;;18.80;54.10;;;;;;5034522;28;20032;-94
2021/11/06 09:16:46;;;;;;;0.00;0.00;;;18.70;54.40;;;;;;5034412;28;20100;-93
2021/11/06 09:19:13;;;;;;;0.00;0.00;;;18.60;54.60;;;;;;5033745;28;20037;-92
2021/11/06 09:21:40;;;;;;;0.00;0.00;;;18.60;54.80;;;;;;5033998;28;20026;-92
2021/11/06 09:24:06;;;;;;;0.00;0.00;;;18.70;54.90;;;;;;5033240;28;20029;-92
2021/11/06 09:26:37;;;;;;;0.00;0.00;;;18.70;54.70;;;;;;5034435;28;20025;-92
2021/11/06 09:29:05;;;;;;;0.00;0.00;;;18.80;54.30;;;;;;5034512;28;20488;-92
2021/11/06 09:31:31;;;;;;;0.00;0.00;;;18.50;53.80;;;;;;5034502;28;20060;-92
2021/11/06 09:33:57;;;;;;;0.00;0.00;;;18.60;54.30;;;;;;5034334;28;20106;-92
2021/11/06 09:36:23;;;;;;;0.00;0.00;;;19.20;54.10;;;;;;5032473;28;20036;-92
2021/11/06 09:38:49;;;;;;;0.00;0.00;;;20.00;53.10;;;;;;5047143;28;20050;-93
2021/11/06 09:41:17;;;;;;;0.00;0.00;;;21.00;51.70;;;;;;5035875;28;20029;-92
2021/11/06 09:43:43;;;;;;;0.00;0.00;;;22.20;50.00;;;;;;5034330;28;20018;-93
2021/11/06 09:46:09;;;;;;;0.00;0.00;;;23.40;47.70;;;;;;5034141;28;20428;-92
2021/11/06 09:48:36;;;;;;;0.00;0.00;;;24.30;45.50;;;;;;5031990;28;20064;-91
2021/11/06 09:51:05;;;;;;;0.00;0.00;;;25.30;43.80;;;;;;5027260;28;20022;-92
2021/11/06 09:53:39;;;;;;;0.00;0.00;;;26.10;43.40;;;;;;5026375;28;20067;-93
2021/11/06 09:56:06;;;;;;;0.00;0.00;;;26.90;41.90;;;;;;5028513;28;20021;-91
2021/11/06 09:58:32;;;;;;;0.00;0.00;;;27.60;40.50;;;;;;5027230;28;20088;-92
2021/11/06 10:00:59;;;;;;;0.00;0.00;;;27.80;39.40;;;;;;5026200;28;20072;-90
2021/11/06 10:03:24;;;;;;;0.00;0.00;;;28.00;39.20;;;;;;5028987;28;20020;-93
2021/11/06 10:06:04;;;;;;;0.00;0.00;;;28.10;38.80;;;;;;5027320;28;20021;-91
2021/11/06 10:08:38;;;;;;;0.00;0.00;;;28.20;38.50;;;;;;5032030;28;20025;-94
2021/11/06 10:11:11;;;;;;;0.00;0.00;;;28.30;38.30;;;;;;5026403;28;20064;-93
2021/11/06 10:14:08;;;;;;;0.00;0.00;;;28.10;37.50;;;;;;5024552;28;20074;-93
2021/11/06 10:16:49;;;;;;;0.00;0.00;;;28.00;37.80;;;;;;5019945;28;20389;-93
2021/11/06 10:19:27;;;;;;;0.00;0.00;;;28.30;37.50;;;;;;5026926;28;20026;-93
2021/11/06 10:22:16;;;;;;;0.00;0.00;;;28.80;37.10;;;;;;5027838;28;20034;-93
2021/11/06 10:24:47;;;;;;;0.00;0.00;;;29.50;36.40;;;;;;5027711;28;20030;-93
2021/11/06 10:27:21;;;;;;;0.00;0.00;;;29.50;36.20;;;;;;5025644;28;20033;-92
2021/11/06 10:30:05;;;;;;;0.00;0.00;;;28.80;35.60;;;;;;5027758;28;20049;-92
2021/11/06 10:32:35;;;;;;;0.00;0.00;;;28.00;36.00;;;;;;5027098;28;20093;-94
2021/11/06 10:35:18;;;;;;;0.00;0.00;;;27.90;36.20;;;;;;5034026;28;20358;-93
2021/11/06 10:37:46;;;;;;;0.00;0.00;;;28.10;35.90;;;;;;5051319;28;20037;-92
2021/11/06 10:40:13;;;;;;;0.00;0.00;;;28.50;36.10;;;;;;5025574;28;20115;-93
2021/11/06 10:42:54;;;;;;;0.00;0.00;;;28.90;35.70;;;;;;5026918;28;20018;-91
2021/11/06 10:45:22;;;;;;;0.00;0.00;;;29.20;35.10;;;;;;5027112;28;20038;-92
2021/11/06 10:48:06;;;;;;;0.00;0.00;;;29.70;35.30;;;;;;5033935;28;20108;-92
2021/11/06 10:50:46;;;;;;;0.00;0.00;;;29.60;34.40;;;;;;5037640;28;20033;-93
2021/11/06 10:53:17;;;;;;;0.00;0.00;;;29.20;34.80;;;;;;5032326;28;20033;-93
2021/11/06 10:55:44;;;;;;;0.00;0.00;;;28.80;34.40;;;;;;5027239;28;20061;-90
2021/11/06 10:58:25;;;;;;;0.00;0.00;;;28.00;34.90;;;;;;5031827;28;20030;-94
2021/11/06 11:00:54;;;;;;;0.00;0.00;;;27.30;35.10;;;;;;5034306;28;20022;-93
2021/11/06 11:03:25;;;;;;;0.00;0.00;;;27.00;35.50;;;;;;5028462;28;20022;-92
2021/11/06 11:05:52;;;;;;;0.00;0.00;;;27.00;35.50;;;;;;5035007;28;20057;-93
2021/11/06 11:08:17;;;;;;;0.00;0.00;;;27.10;35.90;;;;;;5036054;28;20076;-92
2021/11/06 11:10:44;;;;;;;0.00;0.00;;;27.40;35.90;;;;;;5025526;28;20030;-90
2021/11/06 11:13:11;;;;;;;0.00;0.00;;;27.20;35.50;;;;;;5018106;28;20033;-92
2021/11/06 11:15:39;;;;;;;0.00;0.00;;;27.00;35.70;;;;;;5016333;28;20112;-92
2021/11/06 11:18:04;;;;;;;0.00;0.00;;;26.60;35.50;;;;;;5018936;28;20026;-93
2021/11/06 11:20:36;;;;;;;0.00;0.00;;;26.10;35.30;;;;;;5026079;28;20036;-92
2021/11/06 11:23:22;;;;;;;0.00;0.00;;;25.60;35.70;;;;;;5033762;28;20122;-91
2021/11/06 11:25:48;;;;;;;0.00;0.00;;;25.30;36.20;;;;;;5047571;28;20100;-92
2021/11/06 11:28:14;;;;;;;0.00;0.00;;;24.90;36.50;;;;;;5033950;28;20424;-91
2021/11/06 11:30:41;;;;;;;0.00;0.00;;;24.30;37.00;;;;;;5050886;28;20033;-92
2021/11/06 11:33:08;;;;;;;0.00;0.00;;;23.50;37.60;;;;;;5035636;28;20032;-92
2021/11/06 11:35:34;;;;;;;0.00;0.00;;;22.90;38.10;;;;;;5035347;28;20068;-91
2021/11/06 11:38:00;;;;;;;0.00;0.00;;;22.40;38.80;;;;;;5035157;28;20377;-92
2021/11/06 11:40:32;;;;;;;0.00;0.00;;;22.00;39.20;;;;;;5035593;28;20026;-92
2021/11/06 11:43:32;;;;;;;0.00;0.00;;;21.90;39.60;;;;;;5035616;28;20025;-92
2021/11/06 11:46:15;;;;;;;0.00;0.00;;;22.10;40.00;;;;;;5030555;28;20026;-92
2021/11/06 11:48:53;;;;;;;0.00;0.00;;;22.90;39.70;;;;;;5021984;28;20381;-92
2021/11/06 11:51:33;;;;;;;0.00;0.00;;;23.40;39.30;;;;;;5025488;28;20450;-92
2021/11/06 11:54:04;;;;;;;0.00;0.00;;;23.90;38.70;;;;;;5025229;28;20079;-90
2021/11/06 11:56:30;;;;;;;0.00;0.00;;;23.80;38.00;;;;;;5032068;28;20032;-90
2021/11/06 11:58:57;;;;;;;0.00;0.00;;;23.10;38.20;;;;;;5025399;28;20021;-90
2021/11/06 12:01:25;;;;;;;0.00;0.00;;;22.20;39.20;;;;;;5024423;28;20040;-91
2021/11/06 12:03:52;;;;;;;0.00;0.00;;;21.70;40.30;;;;;;5023208;28;20022;-91
2021/11/06 12:06:30;;;;;;;0.00;0.00;;;21.80;40.50;;;;;;5025126;28;20025;-91
2021/11/06 12:09:11;;;;;;;0.00;0.00;;;22.20;40.10;;;;;;5032384;28;20029;-92
2021/11/06 12:11:45;;;;;;;0.00;0.00;;;22.90;39.90;;;;;;5035121;28;20033;-94
2021/11/06 12:14:23;;;;;;;0.00;0.00;;;23.80;39.10;;;;;;5035515;28;20343;-93
2021/11/06 12:17:09;;;;;;;0.00;0.00;;;24.50;38.10;;;;;;5035493;28;20036;-92
2021/11/06 12:19:40;;;;;;;0.00;0.00;;;25.10;37.30;;;;;;5035906;28;20059;-93
2021/11/06 12:22:16;;;;;;;0.00;0.00;;;25.40;36.80;;;;;;5034359;28;20040;-93
2021/11/06 12:24:44;;;;;;;0.00;0.00;;;25.50;36.00;;;;;;5030772;28;20022;-94
2021/11/06 12:27:13;;;;;;;0.00;0.00;;;25.10;35.90;;;;;;5030067;28;20029;-93
2021/11/06 12:29:50;;;;;;;0.00;0.00;;;25.00;36.00;;;;;;5030343;28;20432;-92
2021/11/06 12:32:20;;;;;;;0.00;0.00;;;25.00;36.10;;;;;;5013728;28;20026;-91
2021/11/06 12:34:55;;;;;;;0.00;0.00;;;25.30;36.30;;;;;;5015807;28;20045;-92
2021/11/06 12:37:36;;;;;;;0.00;0.00;;;25.60;36.00;;;;;;5030917;28;20030;-92
2021/11/06 12:40:13;;;;;;;0.00;0.00;;;26.20;35.80;;;;;;5014490;28;20050;-91
2021/11/06 12:42:39;;;;;;;0.00;0.00;;;26.70;35.60;;;;;;5014571;28;20041;-92
2021/11/06 12:45:10;;;;;;;0.00;0.00;;;26.50;35.00;;;;;;5017406;28;20030;-91
2021/11/06 12:47:37;;;;;;;0.00;0.00;;;26.30;35.10;;;;;;5023081;28;20072;-92
2021/11/06 12:50:20;;;;;;;0.00;0.00;;;25.90;35.20;;;;;;5025388;28;20464;-91